sensor_id;sensor_type;location;lat;lon;timestamp;P1;durP1;ratioP1;P2;durP2;ratioP2
31786;SDS011;18356;52.380;9.820;2022-09-06T00:00:06;13.98;;;7.20;;
31786;SDS011;18356;52.380;9.820;2022-09-06T00:02:33;12.45;;;7.18;;
31786;SDS011;18356;52.380;9.820;2022-09-06T00:05:00;14.25;;;7.45;;
31786;SDS011;18356;52.380;9.820;2022-09-06T00:07:26;14.90;;;7.00;;
31786;SDS011;18356;52.380;9.820;2022-09-06T00:09:53;12.63;;;7.72;;
31786;SDS011;18356;52.380;9.820;2022-09-06T00:12:19;13.45;;;7.00;;
31786;SDS011;18356;52.380;9.820;2022-09-06T00:14:45;15.88;;;7.07;;
31786;SDS011;18356;52.380;9.820;2022-09-06T00:17:11;22.08;;;7.25;;
31786;SDS011;18356;52.380;9.820;2022-09-06T00:19:37;12.23;;;7.50;;
31786;SDS011;18356;52.380;9.820;2022-09-06T00:22:03;11.43;;;7.35;;
31786;SDS011;18356;52.380;9.820;2022-09-06T00:24:29;12.13;;;6.85;;
31786;SDS011;18356;52.380;9.820;2022-09-06T00:26:56;11.25;;;7.82;;
31786;SDS011;18356;52.380;9.820;2022-09-06T00:29:22;14.38;;;7.63;;
31786;SDS011;18356;52.380;9.820;2022-09-06T00:31:48;10.07;;;7.50;;
31786;SDS011;18356;52.380;9.820;2022-09-06T00:34:16;11.88;;;7.95;;
31786;SDS011;18356;52.380;9.820;2022-09-06T00:36:42;9.52;;;7.50;;
31786;SDS011;18356;52.380;9.820;2022-09-06T00:39:08;13.45;;;7.18;;
31786;SDS011;18356;52.380;9.820;2022-09-06T00:41:34;11.45;;;7.22;;
31786;SDS011;18356;52.380;9.820;2022-09-06T00:44:00;11.45;;;7.13;;
31786;SDS011;18356;52.380;9.820;2022-09-06T00:46:27;13.45;;;7.45;;
31786;SDS011;18356;52.380;9.820;2022-09-06T00:49:15;12.38;;;7.50;;
31786;SDS011;18356;52.380;9.820;2022-09-06T00:51:40;12.68;;;7.63;;
31786;SDS011;18356;52.380;9.820;2022-09-06T00:54:07;14.73;;;7.43;;
31786;SDS011;18356;52.380;9.820;2022-09-06T00:56:34;16.45;;;7.70;;
31786;SDS011;18356;52.380;9.820;2022-09-06T00:59:02;12.80;;;7.47;;
31786;SDS011;18356;52.380;9.820;2022-09-06T01:01:28;12.10;;;7.55;;
31786;SDS011;18356;52.380;9.820;2022-09-06T01:03:54;11.13;;;7.20;;
31786;SDS011;18356;52.380;9.820;2022-09-06T01:22:13;8.80;;;7.25;;
31786;SDS011;18356;52.380;9.820;2022-09-06T01:28:01;13.00;;;7.60;;
31786;SDS011;18356;52.380;9.820;2022-09-06T01:32:39;12.60;;;7.38;;
31786;SDS011;18356;52.380;9.820;2022-09-06T01:37:32;14.15;;;8.18;;
31786;SDS011;18356;52.380;9.820;2022-09-06T01:39:58;9.20;;;6.90;;
31786;SDS011;18356;52.380;9.820;2022-09-06T01:42:25;15.07;;;7.25;;
31786;SDS011;18356;52.380;9.820;2022-09-06T01:44:56;12.85;;;6.97;;
31786;SDS011;18356;52.380;9.820;2022-09-06T01:47:35;12.55;;;7.20;;
31786;SDS011;18356;52.380;9.820;2022-09-06T01:52:40;10.68;;;7.00;;
31786;SDS011;18356;52.380;9.820;2022-09-06T02:00:23;12.57;;;6.93;;
31786;SDS011;18356;52.380;9.820;2022-09-06T02:05:19;12.25;;;7.43;;
31786;SDS011;18356;52.380;9.820;2022-09-06T02:07:47;11.85;;;7.72;;
31786;SDS011;18356;52.380;9.820;2022-09-06T02:10:18;8.88;;;6.72;;
31786;SDS011;18356;52.380;9.820;2022-09-06T02:12:47;14.18;;;6.93;;
31786;SDS011;18356;52.380;9.820;2022-09-06T02:15:15;11.25;;;6.88;;
31786;SDS011;18356;52.380;9.820;2022-09-06T02:17:46;13.30;;;7.00;;
31786;SDS011;18356;52.380;9.820;2022-09-06T02:20:21;9.10;;;6.50;;
31786;SDS011;18356;52.380;9.820;2022-09-06T02:22:49;18.20;;;7.00;;
31786;SDS011;18356;52.380;9.820;2022-09-06T02:25:23;14.63;;;6.68;;
31786;SDS011;18356;52.380;9.820;2022-09-06T02:27:50;8.82;;;6.82;;
31786;SDS011;18356;52.380;9.820;2022-09-06T02:30:17;11.90;;;6.30;;
31786;SDS011;18356;52.380;9.820;2022-09-06T02:32:47;9.70;;;6.32;;
31786;SDS011;18356;52.380;9.820;2022-09-06T02:35:15;14.45;;;6.20;;
31786;SDS011;18356;52.380;9.820;2022-09-06T02:37:42;11.13;;;6.47;;
31786;SDS011;18356;52.380;9.820;2022-09-06T02:40:09;10.40;;;6.70;;
31786;SDS011;18356;52.380;9.820;2022-09-06T02:42:35;15.95;;;6.68;;
31786;SDS011;18356;52.380;9.820;2022-09-06T02:45:01;8.65;;;6.30;;
31786;SDS011;18356;52.380;9.820;2022-09-06T02:47:29;11.00;;;6.32;;
31786;SDS011;18356;52.380;9.820;2022-09-06T02:49:55;15.65;;;7.15;;
31786;SDS011;18356;52.380;9.820;2022-09-06T02:52:21;15.73;;;6.32;;
31786;SDS011;18356;52.380;9.820;2022-09-06T02:54:47;12.40;;;6.78;;
31786;SDS011;18356;52.380;9.820;2022-09-06T02:57:13;10.73;;;6.32;;
31786;SDS011;18356;52.380;9.820;2022-09-06T02:59:39;10.38;;;6.65;;
31786;SDS011;18356;52.380;9.820;2022-09-06T03:02:05;8.30;;;6.00;;
31786;SDS011;18356;52.380;9.820;2022-09-06T03:04:31;10.05;;;5.75;;
31786;SDS011;18356;52.380;9.820;2022-09-06T03:06:57;8.52;;;6.00;;
31786;SDS011;18356;52.380;9.820;2022-09-06T03:09:23;11.35;;;6.18;;
31786;SDS011;18356;52.380;9.820;2022-09-06T03:11:50;8.45;;;6.10;;
31786;SDS011;18356;52.380;9.820;2022-09-06T03:14:16;14.43;;;6.15;;
31786;SDS011;18356;52.380;9.820;2022-09-06T03:16:43;10.48;;;5.97;;
31786;SDS011;18356;52.380;9.820;2022-09-06T03:19:09;11.23;;;6.10;;
31786;SDS011;18356;52.380;9.820;2022-09-06T03:21:36;9.35;;;5.85;;
31786;SDS011;18356;52.380;9.820;2022-09-06T03:24:05;11.13;;;5.90;;
31786;SDS011;18356;52.380;9.820;2022-09-06T03:26:31;11.38;;;6.13;;
31786;SDS011;18356;52.380;9.820;2022-09-06T03:28:57;16.45;;;6.43;;
31786;SDS011;18356;52.380;9.820;2022-09-06T03:31:23;17.30;;;6.20;;
31786;SDS011;18356;52.380;9.820;2022-09-06T03:33:49;14.18;;;6.40;;
31786;SDS011;18356;52.380;9.820;2022-09-06T03:36:15;15.52;;;6.07;;
31786;SDS011;18356;52.380;9.820;2022-09-06T03:38:42;18.40;;;6.40;;
31786;SDS011;18356;52.380;9.820;2022-09-06T03:41:08;16.77;;;5.50;;
31786;SDS011;18356;52.380;9.820;2022-09-06T03:43:34;10.27;;;5.75;;
31786;SDS011;18356;52.380;9.820;2022-09-06T03:46:00;16.02;;;6.45;;
31786;SDS011;18356;52.380;9.820;2022-09-06T03:48:27;14.30;;;6.07;;
31786;SDS011;18356;52.380;9.820;2022-09-06T03:50:54;8.40;;;5.85;;
31786;SDS011;18356;52.380;9.820;2022-09-06T03:53:21;18.73;;;6.05;;
31786;SDS011;18356;52.380;9.820;2022-09-06T03:55:49;9.15;;;5.57;;
31786;SDS011;18356;52.380;9.820;2022-09-06T03:58:15;11.20;;;6.15;;
31786;SDS011;18356;52.380;9.820;2022-09-06T04:00:42;13.60;;;6.10;;
31786;SDS011;18356;52.380;9.820;2022-09-06T04:03:08;11.77;;;5.93;;
31786;SDS011;18356;52.380;9.820;2022-09-06T04:05:34;17.85;;;6.00;;
31786;SDS011;18356;52.380;9.820;2022-09-06T04:08:01;15.93;;;6.22;;
31786;SDS011;18356;52.380;9.820;2022-09-06T04:10:27;11.98;;;6.00;;
31786;SDS011;18356;52.380;9.820;2022-09-06T04:12:53;12.93;;;5.60;;
31786;SDS011;18356;52.380;9.820;2022-09-06T04:15:19;9.75;;;5.72;;
31786;SDS011;18356;52.380;9.820;2022-09-06T04:17:46;8.60;;;6.10;;
31786;SDS011;18356;52.380;9.820;2022-09-06T04:20:12;9.02;;;5.50;;
31786;SDS011;18356;52.380;9.820;2022-09-06T04:22:40;12.15;;;5.82;;
31786;SDS011;18356;52.380;9.820;2022-09-06T04:25:06;9.82;;;5.60;;
31786;SDS011;18356;52.380;9.820;2022-09-06T04:27:32;14.13;;;5.55;;
31786;SDS011;18356;52.380;9.820;2022-09-06T04:29:58;7.55;;;5.20;;
31786;SDS011;18356;52.380;9.820;2022-09-06T04:32:24;10.75;;;5.57;;
31786;SDS011;18356;52.380;9.820;2022-09-06T04:34:51;11.88;;;5.40;;
31786;SDS011;18356;52.380;9.820;2022-09-06T04:37:17;14.70;;;5.50;;
31786;SDS011;18356;52.380;9.820;2022-09-06T04:39:47;18.58;;;5.75;;
31786;SDS011;18356;52.380;9.820;2022-09-06T04:42:13;10.07;;;5.55;;
31786;SDS011;18356;52.380;9.820;2022-09-06T04:44:40;9.93;;;5.60;;
31786;SDS011;18356;52.380;9.820;2022-09-06T04:47:07;10.57;;;5.40;;
31786;SDS011;18356;52.380;9.820;2022-09-06T04:49:37;12.98;;;5.75;;
31786;SDS011;18356;52.380;9.820;2022-09-06T04:52:03;10.20;;;5.68;;
31786;SDS011;18356;52.380;9.820;2022-09-06T04:54:29;10.52;;;5.65;;
31786;SDS011;18356;52.380;9.820;2022-09-06T04:56:55;7.57;;;5.30;;
31786;SDS011;18356;52.380;9.820;2022-09-06T04:59:21;12.07;;;5.40;;
31786;SDS011;18356;52.380;9.820;2022-09-06T05:01:47;13.77;;;5.53;;
31786;SDS011;18356;52.380;9.820;2022-09-06T05:04:15;12.38;;;6.22;;
31786;SDS011;18356;52.380;9.820;2022-09-06T05:06:41;8.57;;;5.07;;
31786;SDS011;18356;52.380;9.820;2022-09-06T05:09:07;13.77;;;5.60;;
31786;SDS011;18356;52.380;9.820;2022-09-06T05:11:34;14.27;;;5.60;;
31786;SDS011;18356;52.380;9.820;2022-09-06T05:14:00;13.63;;;6.00;;
31786;SDS011;18356;52.380;9.820;2022-09-06T05:16:26;14.70;;;5.78;;
31786;SDS011;18356;52.380;9.820;2022-09-06T05:18:52;15.82;;;6.15;;
31786;SDS011;18356;52.380;9.820;2022-09-06T05:21:18;9.63;;;5.47;;
31786;SDS011;18356;52.380;9.820;2022-09-06T05:23:44;13.52;;;6.38;;
31786;SDS011;18356;52.380;9.820;2022-09-06T05:26:10;12.30;;;5.47;;
31786;SDS011;18356;52.380;9.820;2022-09-06T05:28:36;16.25;;;6.20;;
31786;SDS011;18356;52.380;9.820;2022-09-06T05:33:32;11.77;;;6.38;;
31786;SDS011;18356;52.380;9.820;2022-09-06T05:35:58;12.98;;;5.90;;
31786;SDS011;18356;52.380;9.820;2022-09-06T05:38:25;9.25;;;6.03;;
31786;SDS011;18356;52.380;9.820;2022-09-06T05:40:51;10.93;;;6.00;;
31786;SDS011;18356;52.380;9.820;2022-09-06T05:43:17;11.30;;;6.22;;
31786;SDS011;18356;52.380;9.820;2022-09-06T05:45:43;12.05;;;5.68;;
31786;SDS011;18356;52.380;9.820;2022-09-06T05:48:09;14.85;;;6.10;;
31786;SDS011;18356;52.380;9.820;2022-09-06T05:50:35;9.88;;;5.93;;
31786;SDS011;18356;52.380;9.820;2022-09-06T05:53:01;10.80;;;5.95;;
31786;SDS011;18356;52.380;9.820;2022-09-06T05:55:27;11.52;;;5.95;;
31786;SDS011;18356;52.380;9.820;2022-09-06T05:57:53;9.15;;;5.43;;
31786;SDS011;18356;52.380;9.820;2022-09-06T06:00:19;11.98;;;5.50;;
31786;SDS011;18356;52.380;9.820;2022-09-06T06:02:46;15.98;;;6.10;;
31786;SDS011;18356;52.380;9.820;2022-09-06T06:05:14;11.75;;;5.80;;
31786;SDS011;18356;52.380;9.820;2022-09-06T06:07:41;14.90;;;6.03;;
31786;SDS011;18356;52.380;9.820;2022-09-06T06:10:07;11.38;;;5.93;;
31786;SDS011;18356;52.380;9.820;2022-09-06T06:12:33;18.20;;;6.25;;
31786;SDS011;18356;52.380;9.820;2022-09-06T06:14:59;9.82;;;5.47;;
31786;SDS011;18356;52.380;9.820;2022-09-06T06:17:26;11.45;;;5.47;;
31786;SDS011;18356;52.380;9.820;2022-09-06T06:19:54;11.52;;;6.15;;
31786;SDS011;18356;52.380;9.820;2022-09-06T06:22:20;9.52;;;5.53;;
31786;SDS011;18356;52.380;9.820;2022-09-06T06:24:46;7.32;;;5.20;;
31786;SDS011;18356;52.380;9.820;2022-09-06T06:27:13;10.95;;;5.40;;
31786;SDS011;18356;52.380;9.820;2022-09-06T06:29:39;10.82;;;5.22;;
31786;SDS011;18356;52.380;9.820;2022-09-06T06:32:06;10.63;;;5.43;;
31786;SDS011;18356;52.380;9.820;2022-09-06T06:34:32;10.93;;;5.18;;
31786;SDS011;18356;52.380;9.820;2022-09-06T06:36:58;21.20;;;7.30;;
31786;SDS011;18356;52.380;9.820;2022-09-06T06:39:24;14.52;;;6.13;;
31786;SDS011;18356;52.380;9.820;2022-09-06T06:41:51;13.10;;;6.30;;
31786;SDS011;18356;52.380;9.820;2022-09-06T06:44:17;17.83;;;6.53;;
31786;SDS011;18356;52.380;9.820;2022-09-06T06:46:43;40.00;;;10.77;;
31786;SDS011;18356;52.380;9.820;2022-09-06T06:49:09;36.03;;;9.63;;
31786;SDS011;18356;52.380;9.820;2022-09-06T06:51:35;27.63;;;11.68;;
31786;SDS011;18356;52.380;9.820;2022-09-06T06:54:02;26.35;;;12.68;;
31786;SDS011;18356;52.380;9.820;2022-09-06T06:56:33;19.98;;;12.73;;
31786;SDS011;18356;52.380;9.820;2022-09-06T06:59:00;22.27;;;11.55;;
31786;SDS011;18356;52.380;9.820;2022-09-06T07:01:27;17.88;;;12.25;;
31786;SDS011;18356;52.380;9.820;2022-09-06T07:03:54;23.38;;;13.93;;
31786;SDS011;18356;52.380;9.820;2022-09-06T07:06:20;14.95;;;10.40;;
31786;SDS011;18356;52.380;9.820;2022-09-06T07:08:46;19.80;;;12.98;;
31786;SDS011;18356;52.380;9.820;2022-09-06T07:11:13;23.13;;;16.25;;
31786;SDS011;18356;52.380;9.820;2022-09-06T07:13:39;20.67;;;15.73;;
31786;SDS011;18356;52.380;9.820;2022-09-06T07:16:13;18.52;;;14.70;;
31786;SDS011;18356;52.380;9.820;2022-09-06T07:18:42;19.95;;;13.88;;
31786;SDS011;18356;52.380;9.820;2022-09-06T07:23:36;14.68;;;11.10;;
31786;SDS011;18356;52.380;9.820;2022-09-06T07:26:02;14.95;;;10.55;;
31786;SDS011;18356;52.380;9.820;2022-09-06T07:28:28;18.13;;;11.00;;
31786;SDS011;18356;52.380;9.820;2022-09-06T07:30:55;20.83;;;11.55;;
31786;SDS011;18356;52.380;9.820;2022-09-06T07:33:21;23.58;;;12.02;;
31786;SDS011;18356;52.380;9.820;2022-09-06T07:35:59;21.13;;;10.95;;
31786;SDS011;18356;52.380;9.820;2022-09-06T07:38:26;23.08;;;13.07;;
31786;SDS011;18356;52.380;9.820;2022-09-06T07:40:53;17.60;;;12.88;;
31786;SDS011;18356;52.380;9.820;2022-09-06T07:43:19;20.80;;;11.05;;
31786;SDS011;18356;52.380;9.820;2022-09-06T07:45:46;14.68;;;10.82;;
31786;SDS011;18356;52.380;9.820;2022-09-06T07:48:12;18.10;;;10.93;;
31786;SDS011;18356;52.380;9.820;2022-09-06T07:50:38;17.73;;;15.50;;
31786;SDS011;18356;52.380;9.820;2022-09-06T07:53:04;16.15;;;11.00;;
31786;SDS011;18356;52.380;9.820;2022-09-06T07:55:30;15.60;;;9.98;;
31786;SDS011;18356;52.380;9.820;2022-09-06T07:57:56;13.98;;;9.65;;
31786;SDS011;18356;52.380;9.820;2022-09-06T08:00:22;19.73;;;13.50;;
31786;SDS011;18356;52.380;9.820;2022-09-06T08:02:49;21.15;;;11.02;;
31786;SDS011;18356;52.380;9.820;2022-09-06T08:05:15;15.73;;;9.30;;
31786;SDS011;18356;52.380;9.820;2022-09-06T08:07:41;17.10;;;10.48;;
31786;SDS011;18356;52.380;9.820;2022-09-06T08:10:07;14.27;;;8.93;;
31786;SDS011;18356;52.380;9.820;2022-09-06T08:12:34;15.63;;;9.27;;
31786;SDS011;18356;52.380;9.820;2022-09-06T08:15:02;14.73;;;8.95;;
31786;SDS011;18356;52.380;9.820;2022-09-06T08:17:29;16.23;;;8.52;;
31786;SDS011;18356;52.380;9.820;2022-09-06T08:19:59;13.18;;;9.13;;
31786;SDS011;18356;52.380;9.820;2022-09-06T08:22:25;14.20;;;7.80;;
31786;SDS011;18356;52.380;9.820;2022-09-06T08:24:52;14.98;;;8.80;;
31786;SDS011;18356;52.380;9.820;2022-09-06T08:27:19;15.35;;;8.40;;
31786;SDS011;18356;52.380;9.820;2022-09-06T08:29:45;20.23;;;7.88;;
31786;SDS011;18356;52.380;9.820;2022-09-06T08:32:12;25.33;;;8.32;;
31786;SDS011;18356;52.380;9.820;2022-09-06T08:34:38;16.27;;;8.05;;
31786;SDS011;18356;52.380;9.820;2022-09-06T08:37:05;29.45;;;7.60;;
31786;SDS011;18356;52.380;9.820;2022-09-06T08:39:32;21.92;;;7.40;;
31786;SDS011;18356;52.380;9.820;2022-09-06T08:42:01;15.25;;;6.40;;
31786;SDS011;18356;52.380;9.820;2022-09-06T08:44:40;14.35;;;6.75;;
31786;SDS011;18356;52.380;9.820;2022-09-06T08:49:43;16.85;;;6.53;;
31786;SDS011;18356;52.380;9.820;2022-09-06T08:52:13;11.65;;;6.03;;
31786;SDS011;18356;52.380;9.820;2022-09-06T08:54:51;12.57;;;5.72;;
31786;SDS011;18356;52.380;9.820;2022-09-06T08:57:25;22.02;;;5.72;;
31786;SDS011;18356;52.380;9.820;2022-09-06T08:59:56;15.55;;;5.57;;
31786;SDS011;18356;52.380;9.820;2022-09-06T09:02:24;8.48;;;5.13;;
31786;SDS011;18356;52.380;9.820;2022-09-06T09:04:54;13.52;;;5.78;;
31786;SDS011;18356;52.380;9.820;2022-09-06T09:07:44;14.20;;;5.47;;
31786;SDS011;18356;52.380;9.820;2022-09-06T09:10:15;10.70;;;5.80;;
31786;SDS011;18356;52.380;9.820;2022-09-06T09:12:44;20.33;;;5.93;;
31786;SDS011;18356;52.380;9.820;2022-09-06T09:15:12;20.15;;;5.20;;
31786;SDS011;18356;52.380;9.820;2022-09-06T09:17:38;15.90;;;6.00;;
31786;SDS011;18356;52.380;9.820;2022-09-06T09:20:04;13.80;;;5.07;;
31786;SDS011;18356;52.380;9.820;2022-09-06T09:22:32;13.00;;;5.43;;
31786;SDS011;18356;52.380;9.820;2022-09-06T09:25:00;10.43;;;4.65;;
31786;SDS011;18356;52.380;9.820;2022-09-06T09:27:33;12.27;;;4.65;;
31786;SDS011;18356;52.380;9.820;2022-09-06T09:30:00;9.02;;;4.70;;
31786;SDS011;18356;52.380;9.820;2022-09-06T09:36:00;11.27;;;4.85;;
31786;SDS011;18356;52.380;9.820;2022-09-06T09:37:59;10.43;;;4.40;;
31786;SDS011;18356;52.380;9.820;2022-09-06T09:40:27;8.68;;;4.40;;
31786;SDS011;18356;52.380;9.820;2022-09-06T09:42:55;8.40;;;4.57;;
31786;SDS011;18356;52.380;9.820;2022-09-06T09:45:27;10.43;;;4.30;;
31786;SDS011;18356;52.380;9.820;2022-09-06T09:47:53;11.00;;;4.28;;
31786;SDS011;18356;52.380;9.820;2022-09-06T09:50:24;13.50;;;4.22;;
31786;SDS011;18356;52.380;9.820;2022-09-06T09:52:50;12.57;;;4.57;;
31786;SDS011;18356;52.380;9.820;2022-09-06T09:55:17;12.90;;;4.28;;
31786;SDS011;18356;52.380;9.820;2022-09-06T09:57:46;9.80;;;4.18;;
31786;SDS011;18356;52.380;9.820;2022-09-06T10:00:30;17.92;;;3.90;;
31786;SDS011;18356;52.380;9.820;2022-09-06T10:02:56;10.35;;;4.18;;
31786;SDS011;18356;52.380;9.820;2022-09-06T10:05:22;12.90;;;4.50;;
31786;SDS011;18356;52.380;9.820;2022-09-06T10:07:52;19.88;;;3.97;;
31786;SDS011;18356;52.380;9.820;2022-09-06T10:12:48;7.80;;;3.85;;
31786;SDS011;18356;52.380;9.820;2022-09-06T10:15:34;8.48;;;3.97;;
31786;SDS011;18356;52.380;9.820;2022-09-06T10:18:00;7.70;;;3.80;;
31786;SDS011;18356;52.380;9.820;2022-09-06T10:21:00;9.50;;;3.85;;
31786;SDS011;18356;52.380;9.820;2022-09-06T10:28:33;13.13;;;3.80;;
31786;SDS011;18356;52.380;9.820;2022-09-06T10:35:58;8.55;;;4.05;;
31786;SDS011;18356;52.380;9.820;2022-09-06T10:38:30;8.20;;;4.07;;
31786;SDS011;18356;52.380;9.820;2022-09-06T10:46:15;14.68;;;4.03;;
31786;SDS011;18356;52.380;9.820;2022-09-06T10:48:45;15.23;;;4.35;;
31786;SDS011;18356;52.380;9.820;2022-09-06T10:59:19;12.02;;;3.88;;
31786;SDS011;18356;52.380;9.820;2022-09-06T11:01:54;10.82;;;3.63;;
31786;SDS011;18356;52.380;9.820;2022-09-06T11:04:23;14.05;;;4.30;;
31786;SDS011;18356;52.380;9.820;2022-09-06T11:06:52;9.00;;;4.03;;
31786;SDS011;18356;52.380;9.820;2022-09-06T11:11:52;13.30;;;3.30;;
31786;SDS011;18356;52.380;9.820;2022-09-06T11:14:21;10.90;;;3.95;;
31786;SDS011;18356;52.380;9.820;2022-09-06T11:16:55;10.85;;;3.40;;
31786;SDS011;18356;52.380;9.820;2022-09-06T11:19:43;12.27;;;3.38;;
31786;SDS011;18356;52.380;9.820;2022-09-06T11:25:12;10.25;;;3.53;;
31786;SDS011;18356;52.380;9.820;2022-09-06T11:27:39;16.05;;;3.85;;
31786;SDS011;18356;52.380;9.820;2022-09-06T11:30:11;13.10;;;3.60;;
31786;SDS011;18356;52.380;9.820;2022-09-06T11:32:39;12.77;;;3.90;;
31786;SDS011;18356;52.380;9.820;2022-09-06T11:35:26;26.75;;;3.97;;
31786;SDS011;18356;52.380;9.820;2022-09-06T11:37:58;11.68;;;3.55;;
31786;SDS011;18356;52.380;9.820;2022-09-06T11:40:26;14.70;;;3.85;;
31786;SDS011;18356;52.380;9.820;2022-09-06T11:45:20;12.80;;;3.58;;
31786;SDS011;18356;52.380;9.820;2022-09-06T11:47:50;9.52;;;3.55;;
31786;SDS011;18356;52.380;9.820;2022-09-06T11:55:15;21.50;;;4.18;;
31786;SDS011;18356;52.380;9.820;2022-09-06T11:57:43;12.30;;;3.75;;
31786;SDS011;18356;52.380;9.820;2022-09-06T12:00:16;12.98;;;3.90;;
31786;SDS011;18356;52.380;9.820;2022-09-06T12:02:43;12.00;;;3.72;;
31786;SDS011;18356;52.380;9.820;2022-09-06T12:05:25;13.05;;;3.78;;
31786;SDS011;18356;52.380;9.820;2022-09-06T12:15:51;14.32;;;3.85;;
31786;SDS011;18356;52.380;9.820;2022-09-06T12:18:52;14.82;;;4.07;;
31786;SDS011;18356;52.380;9.820;2022-09-06T12:21:30;10.50;;;3.33;;
31786;SDS011;18356;52.380;9.820;2022-09-06T12:23:56;12.85;;;3.65;;
31786;SDS011;18356;52.380;9.820;2022-09-06T12:29:08;12.40;;;3.70;;
31786;SDS011;18356;52.380;9.820;2022-09-06T12:31:39;11.57;;;3.70;;
31786;SDS011;18356;52.380;9.820;2022-09-06T12:34:08;15.48;;;4.00;;
31786;SDS011;18356;52.380;9.820;2022-09-06T12:36:36;19.58;;;3.85;;
31786;SDS011;18356;52.380;9.820;2022-09-06T12:39:11;9.48;;;3.53;;
31786;SDS011;18356;52.380;9.820;2022-09-06T12:41:42;13.70;;;3.72;;
31786;SDS011;18356;52.380;9.820;2022-09-06T12:44:09;12.32;;;3.22;;
31786;SDS011;18356;52.380;9.820;2022-09-06T12:46:36;8.73;;;3.47;;
31786;SDS011;18356;52.380;9.820;2022-09-06T12:49:08;8.38;;;3.47;;
31786;SDS011;18356;52.380;9.820;2022-09-06T12:51:35;13.75;;;3.40;;
31786;SDS011;18356;52.380;9.820;2022-09-06T12:54:03;10.70;;;3.95;;
31786;SDS011;18356;52.380;9.820;2022-09-06T12:56:31;13.75;;;3.47;;
31786;SDS011;18356;52.380;9.820;2022-09-06T13:01:42;10.90;;;3.30;;
31786;SDS011;18356;52.380;9.820;2022-09-06T13:04:55;10.38;;;3.42;;
31786;SDS011;18356;52.380;9.820;2022-09-06T13:06:56;16.48;;;3.75;;
31786;SDS011;18356;52.380;9.820;2022-09-06T13:09:23;9.00;;;3.55;;
31786;SDS011;18356;52.380;9.820;2022-09-06T13:11:51;11.88;;;3.47;;
31786;SDS011;18356;52.380;9.820;2022-09-06T13:14:19;15.45;;;3.72;;
31786;SDS011;18356;52.380;9.820;2022-09-06T13:16:46;16.70;;;3.40;;
31786;SDS011;18356;52.380;9.820;2022-09-06T13:19:17;14.07;;;3.72;;
31786;SDS011;18356;52.380;9.820;2022-09-06T13:21:44;18.88;;;3.67;;
31786;SDS011;18356;52.380;9.820;2022-09-06T13:24:20;11.18;;;3.75;;
31786;SDS011;18356;52.380;9.820;2022-09-06T13:26:47;10.48;;;3.80;;
31786;SDS011;18356;52.380;9.820;2022-09-06T13:31:47;15.45;;;3.72;;
31786;SDS011;18356;52.380;9.820;2022-09-06T13:34:21;9.85;;;3.70;;
31786;SDS011;18356;52.380;9.820;2022-09-06T13:36:48;11.20;;;3.50;;
31786;SDS011;18356;52.380;9.820;2022-09-06T13:39:30;14.07;;;3.55;;
31786;SDS011;18356;52.380;9.820;2022-09-06T13:42:01;10.32;;;3.92;;
31786;SDS011;18356;52.380;9.820;2022-09-06T13:44:31;10.13;;;3.20;;
31786;SDS011;18356;52.380;9.820;2022-09-06T13:46:57;15.18;;;3.72;;
31786;SDS011;18356;52.380;9.820;2022-09-06T13:49:25;10.93;;;3.33;;
31786;SDS011;18356;52.380;9.820;2022-09-06T13:51:52;22.38;;;3.50;;
31786;SDS011;18356;52.380;9.820;2022-09-06T13:54:21;14.65;;;3.30;;
31786;SDS011;18356;52.380;9.820;2022-09-06T13:56:47;13.90;;;3.70;;
31786;SDS011;18356;52.380;9.820;2022-09-06T13:59:14;18.55;;;3.85;;
31786;SDS011;18356;52.380;9.820;2022-09-06T14:01:40;17.42;;;3.80;;
31786;SDS011;18356;52.380;9.820;2022-09-06T14:04:08;12.77;;;4.43;;
31786;SDS011;18356;52.380;9.820;2022-09-06T14:06:35;20.92;;;3.47;;
31786;SDS011;18356;52.380;9.820;2022-09-06T14:09:03;17.52;;;3.63;;
31786;SDS011;18356;52.380;9.820;2022-09-06T14:11:29;14.45;;;3.47;;
31786;SDS011;18356;52.380;9.820;2022-09-06T14:13:55;20.20;;;4.05;;
31786;SDS011;18356;52.380;9.820;2022-09-06T14:16:21;9.88;;;4.00;;
31786;SDS011;18356;52.380;9.820;2022-09-06T14:18:47;10.65;;;3.15;;
31786;SDS011;18356;52.380;9.820;2022-09-06T14:21:13;12.65;;;3.60;;
31786;SDS011;18356;52.380;9.820;2022-09-06T14:23:39;17.40;;;3.65;;
31786;SDS011;18356;52.380;9.820;2022-09-06T14:26:08;13.43;;;3.75;;
31786;SDS011;18356;52.380;9.820;2022-09-06T14:28:35;18.77;;;3.70;;
31786;SDS011;18356;52.380;9.820;2022-09-06T14:31:14;9.27;;;3.35;;
31786;SDS011;18356;52.380;9.820;2022-09-06T14:33:40;21.17;;;3.95;;
31786;SDS011;18356;52.380;9.820;2022-09-06T14:36:11;10.00;;;3.30;;
31786;SDS011;18356;52.380;9.820;2022-09-06T14:38:38;14.32;;;3.47;;
31786;SDS011;18356;52.380;9.820;2022-09-06T14:41:06;16.75;;;3.70;;
31786;SDS011;18356;52.380;9.820;2022-09-06T14:43:32;13.77;;;3.65;;
31786;SDS011;18356;52.380;9.820;2022-09-06T14:46:03;13.82;;;3.55;;
31786;SDS011;18356;52.380;9.820;2022-09-06T14:48:29;9.98;;;3.20;;
31786;SDS011;18356;52.380;9.820;2022-09-06T14:50:56;7.53;;;2.90;;
31786;SDS011;18356;52.380;9.820;2022-09-06T14:53:22;9.90;;;3.85;;
31786;SDS011;18356;52.380;9.820;2022-09-06T14:55:49;13.02;;;3.38;;
31786;SDS011;18356;52.380;9.820;2022-09-06T14:58:15;18.08;;;3.58;;
31786;SDS011;18356;52.380;9.820;2022-09-06T15:00:41;8.77;;;3.40;;
31786;SDS011;18356;52.380;9.820;2022-09-06T15:03:10;16.15;;;3.30;;
31786;SDS011;18356;52.380;9.820;2022-09-06T15:05:36;10.70;;;3.47;;
31786;SDS011;18356;52.380;9.820;2022-09-06T15:08:02;10.52;;;3.42;;
31786;SDS011;18356;52.380;9.820;2022-09-06T15:10:28;18.90;;;3.55;;
31786;SDS011;18356;52.380;9.820;2022-09-06T15:12:55;9.27;;;2.92;;
31786;SDS011;18356;52.380;9.820;2022-09-06T15:15:21;10.95;;;3.28;;
31786;SDS011;18356;52.380;9.820;2022-09-06T15:17:48;10.35;;;3.60;;
31786;SDS011;18356;52.380;9.820;2022-09-06T15:20:15;11.32;;;3.70;;
31786;SDS011;18356;52.380;9.820;2022-09-06T15:22:41;10.98;;;3.60;;
31786;SDS011;18356;52.380;9.820;2022-09-06T15:25:08;11.05;;;3.45;;
31786;SDS011;18356;52.380;9.820;2022-09-06T15:27:35;15.60;;;3.42;;
31786;SDS011;18356;52.380;9.820;2022-09-06T15:30:02;11.40;;;3.63;;
31786;SDS011;18356;52.380;9.820;2022-09-06T15:32:28;14.02;;;3.35;;
31786;SDS011;18356;52.380;9.820;2022-09-06T15:34:54;11.40;;;3.53;;
31786;SDS011;18356;52.380;9.820;2022-09-06T15:37:20;7.45;;;3.10;;
31786;SDS011;18356;52.380;9.820;2022-09-06T15:39:48;8.02;;;3.33;;
31786;SDS011;18356;52.380;9.820;2022-09-06T15:42:14;7.93;;;3.10;;
31786;SDS011;18356;52.380;9.820;2022-09-06T15:44:40;10.65;;;3.33;;
31786;SDS011;18356;52.380;9.820;2022-09-06T15:47:06;10.85;;;3.17;;
31786;SDS011;18356;52.380;9.820;2022-09-06T15:49:33;9.20;;;3.25;;
31786;SDS011;18356;52.380;9.820;2022-09-06T15:52:00;8.52;;;3.40;;
31786;SDS011;18356;52.380;9.820;2022-09-06T15:54:27;9.57;;;3.20;;
31786;SDS011;18356;52.380;9.820;2022-09-06T15:57:13;14.00;;;3.50;;
31786;SDS011;18356;52.380;9.820;2022-09-06T15:59:40;12.15;;;3.55;;
31786;SDS011;18356;52.380;9.820;2022-09-06T16:02:06;14.20;;;3.67;;
31786;SDS011;18356;52.380;9.820;2022-09-06T16:04:33;17.27;;;3.47;;
31786;SDS011;18356;52.380;9.820;2022-09-06T16:06:59;12.35;;;3.42;;
31786;SDS011;18356;52.380;9.820;2022-09-06T16:09:25;7.72;;;3.42;;
31786;SDS011;18356;52.380;9.820;2022-09-06T16:11:51;8.35;;;3.65;;
31786;SDS011;18356;52.380;9.820;2022-09-06T16:14:18;11.77;;;3.90;;
31786;SDS011;18356;52.380;9.820;2022-09-06T16:16:44;13.07;;;3.60;;
31786;SDS011;18356;52.380;9.820;2022-09-06T16:19:10;13.15;;;3.30;;